createdAt,value
2019-02-07T00:01:44.463Z,34.20
2019-02-07T00:04:13.867Z,34.47
2019-02-07T00:06:43.117Z,34.10
2019-02-07T00:09:12.338Z,33.73
2019-02-07T00:11:41.590Z,33.40
2019-02-07T00:14:10.732Z,34.23
2019-02-07T00:16:40.064Z,34.37
2019-02-07T00:19:09.295Z,33.27
2019-02-07T00:21:38.555Z,33.93
2019-02-07T00:24:08.288Z,33.20
2019-02-07T00:26:37.610Z,35.73
2019-02-07T00:29:06.762Z,34.43
2019-02-07T00:31:36.074Z,35.33
2019-02-07T00:34:24.494Z,34.43
2019-02-07T00:36:53.670Z,34.60
2019-02-07T00:39:23.094Z,33.90
2019-02-07T00:41:52.422Z,34.90
2019-02-07T00:44:21.758Z,33.83
2019-02-07T00:46:50.939Z,33.93
2019-02-07T00:49:20.243Z,35.00
2019-02-07T00:51:49.513Z,33.57
2019-02-07T00:54:19.046Z,33.63
2019-02-07T00:56:48.220Z,33.87
2019-02-07T00:59:17.471Z,33.30
2019-02-07T01:01:46.683Z,33.17
2019-02-07T01:04:15.942Z,33.13
2019-02-07T01:06:45.101Z,33.50
2019-02-07T01:09:14.458Z,33.30
2019-02-07T01:11:43.683Z,33.17
2019-02-07T01:14:12.975Z,33.07
2019-02-07T01:16:42.279Z,34.27
2019-02-07T01:19:11.958Z,32.53
2019-02-07T01:21:41.104Z,33.63
2019-02-07T01:24:10.463Z,33.10
2019-02-07T01:26:39.708Z,32.53
2019-02-07T01:29:09.066Z,33.63
2019-02-07T01:31:38.290Z,33.47
2019-02-07T01:34:07.810Z,34.97
2019-02-07T01:36:37.036Z,34.13
2019-02-07T01:39:08.879Z,32.33
2019-02-07T01:41:38.182Z,33.60
2019-02-07T01:44:07.511Z,34.47
2019-02-07T01:46:36.733Z,34.63
2019-02-07T01:49:06.019Z,34.53
2019-02-07T01:51:35.315Z,34.67
2019-02-07T01:54:04.842Z,34.90
2019-02-07T01:56:34.071Z,34.23
2019-02-07T01:59:03.333Z,34.97
2019-02-07T02:01:32.578Z,35.50
2019-02-07T02:04:02.272Z,35.27
2019-02-07T02:06:31.502Z,34.53
2019-02-07T02:09:00.739Z,34.30
2019-02-07T02:11:29.930Z,34.97
2019-02-07T02:13:59.083Z,33.50
2019-02-07T02:16:28.437Z,34.20
2019-02-07T02:18:57.653Z,35.30
2019-02-07T02:21:27.027Z,34.13
2019-02-07T02:23:56.263Z,33.90
2019-02-07T02:26:25.603Z,37.10
2019-02-07T02:28:54.831Z,35.73
2019-02-07T02:31:24.087Z,36.33
2019-02-07T02:33:53.313Z,35.43
2019-02-07T02:36:22.638Z,36.07
2019-02-07T02:38:51.974Z,33.83
2019-02-07T02:41:21.260Z,33.37
2019-02-07T02:43:50.570Z,34.23
2019-02-07T02:46:19.758Z,34.50
2019-02-07T02:48:49.067Z,36.10
2019-02-07T02:51:18.256Z,36.83
2019-02-07T02:53:47.793Z,34.93
2019-02-07T02:56:17.139Z,35.30
2019-02-07T02:58:46.482Z,36.17
2019-02-07T03:01:40.347Z,34.87
2019-02-07T03:04:18.070Z,35.80
2019-02-07T03:07:21.815Z,36.47
2019-02-07T03:10:06.331Z,37.10
2019-02-07T03:12:53.249Z,37.13
2019-02-07T03:15:49.319Z,35.50
2019-02-07T03:18:30.154Z,38.70
2019-02-07T03:21:21.394Z,37.17
2019-02-07T03:24:13.270Z,37.20
2019-02-07T03:27:00.592Z,35.27
2019-02-07T03:29:48.325Z,37.07
2019-02-07T03:32:22.676Z,36.80
2019-02-07T03:34:58.220Z,37.87
2019-02-07T03:37:46.503Z,38.43
2019-02-07T03:40:41.171Z,37.07
2019-02-07T03:43:28.790Z,36.17
2019-02-07T03:46:23.070Z,36.00
2019-02-07T03:49:17.860Z,36.50
2019-02-07T03:51:57.963Z,37.07
2019-02-07T03:54:58.551Z,36.27
2019-02-07T03:57:59.162Z,37.20
2019-02-07T04:00:34.913Z,36.40
2019-02-07T04:03:26.395Z,35.53
2019-02-07T04:06:06.582Z,37.70
2019-02-07T04:08:53.601Z,38.83
2019-02-07T04:11:40.838Z,37.63
2019-02-07T04:14:20.360Z,38.23
2019-02-07T04:17:07.686Z,36.57
2019-02-07T04:19:47.738Z,38.87
2019-02-07T04:22:35.015Z,38.70
2019-02-07T04:25:22.049Z,39.17
2019-02-07T04:28:18.530Z,36.60
2019-02-07T04:31:06.337Z,37.33
2019-02-07T04:34:13.085Z,38.40
2019-02-07T04:36:50.322Z,37.97
2019-02-07T04:39:50.966Z,36.53
2019-02-07T04:42:37.850Z,37.37
2019-02-07T04:45:24.354Z,36.90
2019-02-07T04:48:11.630Z,36.50
2019-02-07T04:50:51.165Z,37.27
2019-02-07T04:53:48.669Z,36.80
2019-02-07T04:56:49.375Z,37.70
2019-02-07T04:59:49.705Z,36.23
2019-02-07T05:02:38.088Z,37.27
2019-02-07T05:05:27.463Z,35.40
2019-02-07T05:08:25.042Z,35.40
2019-02-07T05:11:16.358Z,36.77
2019-02-07T05:14:04.943Z,36.13
2019-02-07T05:16:45.051Z,38.17
2019-02-07T05:19:36.168Z,37.00
2019-02-07T05:22:27.793Z,36.57
2019-02-07T05:25:10.573Z,38.17
2019-02-07T05:27:58.858Z,35.87
2019-02-07T05:30:52.871Z,36.03
2019-02-07T05:33:44.854Z,37.07
2019-02-07T05:36:29.378Z,36.17
2019-02-07T05:39:17.666Z,35.93
2019-02-07T05:42:11.651Z,36.73
2019-02-07T05:44:58.944Z,35.90
2019-02-07T05:47:49.121Z,35.67
2019-02-07T05:50:32.163Z,35.50
2019-02-07T05:53:23.253Z,35.07
2019-02-07T05:56:11.307Z,35.37
2019-02-07T05:59:02.606Z,34.97
2019-02-07T06:02:05.978Z,35.13
2019-02-07T06:04:57.075Z,33.67
2019-02-07T06:07:50.061Z,35.53
2019-02-07T06:10:37.176Z,35.90
2019-02-07T06:13:40.575Z,37.20
2019-02-07T06:16:40.987Z,35.83
2019-02-07T06:19:35.129Z,35.17
2019-02-07T06:22:23.385Z,36.50
2019-02-07T06:25:03.814Z,38.50
2019-02-07T06:27:54.842Z,36.33
2019-02-07T06:30:47.479Z,35.10
2019-02-07T06:33:38.477Z,35.73
2019-02-07T06:36:44.857Z,35.27
2019-02-07T06:39:29.524Z,35.30
2019-02-07T06:42:16.230Z,33.33
2019-02-07T06:45:06.013Z,35.00
2019-02-07T06:48:01.921Z,35.07
2019-02-07T06:50:50.242Z,36.03
2019-02-07T06:53:38.502Z,33.90
2019-02-07T06:56:25.734Z,33.60
2019-02-07T06:59:12.821Z,34.60
2019-02-07T07:02:13.274Z,34.37
2019-02-07T07:04:51.237Z,34.90
2019-02-07T07:07:39.454Z,34.57
2019-02-07T07:10:42.223Z,34.80
2019-02-07T07:13:39.984Z,33.90
2019-02-07T07:16:16.776Z,34.83
2019-02-07T07:19:03.631Z,35.00
2019-02-07T07:21:56.290Z,36.17
2019-02-07T07:24:53.895Z,35.90
2019-02-07T07:27:40.774Z,36.67
2019-02-07T07:30:32.158Z,35.47
2019-02-07T07:33:20.372Z,37.23
2019-02-07T07:36:08.632Z,38.77
2019-02-07T07:38:50.467Z,38.73
2019-02-07T07:41:38.678Z,37.63
2019-02-07T07:44:25.938Z,37.20
2019-02-07T07:47:06.486Z,37.67
2019-02-07T07:49:53.399Z,37.63
2019-02-07T07:52:39.824Z,36.67
2019-02-07T07:55:15.318Z,37.83
2019-02-07T07:58:06.383Z,38.07
2019-02-07T08:00:57.613Z,38.23
2019-02-07T08:03:45.823Z,39.13
2019-02-07T08:06:35.051Z,38.50
2019-02-07T08:09:26.982Z,39.27
2019-02-07T08:12:12.695Z,40.10
2019-02-07T08:15:04.069Z,38.90
2019-02-07T08:17:47.534Z,40.03
2019-02-07T08:20:32.995Z,40.40
2019-02-07T08:23:25.658Z,41.33
2019-02-07T08:26:17.155Z,41.50
2019-02-07T08:29:02.886Z,42.00
2019-02-07T08:31:44.929Z,39.67
2019-02-07T08:34:48.307Z,41.33
2019-02-07T08:37:36.531Z,41.03
2019-02-07T08:40:26.985Z,40.13
2019-02-07T08:43:30.628Z,42.40
2019-02-07T08:46:17.976Z,41.00
2019-02-07T08:49:12.451Z,43.30
2019-02-07T08:52:06.895Z,43.73
2019-02-07T08:54:58.010Z,42.57
2019-02-07T08:57:46.679Z,42.20
2019-02-07T09:00:33.003Z,41.87
2019-02-07T09:03:12.718Z,41.13
2019-02-07T09:06:03.756Z,43.90
2019-02-07T09:08:50.421Z,42.03
2019-02-07T09:11:41.750Z,43.87
2019-02-07T09:14:27.876Z,44.10
2019-02-07T09:17:19.349Z,44.23
2019-02-07T09:20:16.674Z,41.47
2019-02-07T09:23:03.921Z,43.17
2019-02-07T09:25:51.187Z,41.73
2019-02-07T09:28:32.915Z,43.43
2019-02-07T09:31:23.437Z,43.00
2019-02-07T09:34:30.112Z,46.53
2019-02-07T09:37:18.391Z,43.57
2019-02-07T09:40:06.641Z,43.50
2019-02-07T09:42:44.882Z,43.13
2019-02-07T09:45:39.857Z,45.23
2019-02-07T09:48:46.314Z,43.47
2019-02-07T09:51:37.936Z,43.30
2019-02-07T09:54:24.610Z,43.07
2019-02-07T09:57:15.004Z,42.07
2019-02-07T10:00:06.390Z,44.93
2019-02-07T10:02:43.040Z,42.77
2019-02-07T10:05:47.033Z,41.70
2019-02-07T10:08:34.340Z,50.33
2019-02-07T10:11:21.133Z,49.87
2019-02-07T10:14:09.323Z,47.53
2019-02-07T10:16:54.239Z,44.87
2019-02-07T10:19:42.503Z,45.60
2019-02-07T10:22:31.062Z,46.47
2019-02-07T10:25:18.034Z,44.23
2019-02-07T10:28:17.039Z,44.37
2019-02-07T10:31:13.379Z,42.40
2019-02-07T10:34:13.566Z,46.83
2019-02-07T10:36:55.929Z,42.93
2019-02-07T10:39:44.119Z,49.33
2019-02-07T10:42:44.742Z,45.43
2019-02-07T10:45:43.135Z,48.23
2019-02-07T10:48:30.481Z,46.53
2019-02-07T10:51:18.834Z,50.63
2019-02-07T10:53:58.062Z,50.17
2019-02-07T10:56:46.379Z,45.30
2019-02-07T10:59:31.040Z,45.57
2019-02-07T11:02:22.334Z,47.93
2019-02-07T11:05:10.896Z,46.50
2019-02-07T11:08:08.670Z,47.67
2019-02-07T11:11:02.673Z,45.63
2019-02-07T11:14:08.450Z,44.43
2019-02-07T11:16:55.336Z,45.83
2019-02-07T11:19:43.875Z,46.13
2019-02-07T11:22:38.155Z,44.83
2019-02-07T11:25:27.454Z,43.33
2019-02-07T11:28:21.806Z,45.60
2019-02-07T11:31:25.371Z,46.03
2019-02-07T11:34:22.750Z,45.60
2019-02-07T11:37:09.591Z,48.13
2019-02-07T11:40:04.219Z,48.03
2019-02-07T11:42:52.487Z,50.33
2019-02-07T11:45:40.854Z,48.60
2019-02-07T11:48:28.894Z,47.07
2019-02-07T11:51:15.694Z,46.80
2019-02-07T11:54:07.986Z,47.20
2019-02-07T11:57:08.425Z,45.87
2019-02-07T11:59:55.366Z,47.77
2019-02-07T12:02:47.234Z,50.17
2019-02-07T12:05:50.589Z,46.67
2019-02-07T12:08:59.891Z,46.10
2019-02-07T12:11:53.896Z,45.80
2019-02-07T12:14:47.013Z,43.90
2019-02-07T12:17:34.721Z,44.73
2019-02-07T12:20:23.706Z,45.53
2019-02-07T12:23:12.171Z,46.97
2019-02-07T12:25:52.918Z,44.03
2019-02-07T12:28:41.111Z,46.30
2019-02-07T12:31:27.970Z,49.67
2019-02-07T12:34:15.038Z,52.20
2019-02-07T12:37:02.913Z,48.53
2019-02-07T12:39:51.135Z,46.97
2019-02-07T12:42:38.606Z,47.97
2019-02-07T12:45:37.669Z,51.10
2019-02-07T12:48:26.340Z,50.30
2019-02-07T12:51:24.754Z,52.20
2019-02-07T12:54:20.919Z,50.47
2019-02-07T12:57:09.154Z,46.00
2019-02-07T12:59:59.162Z,52.97
2019-02-07T13:02:38.891Z,54.20
2019-02-07T13:05:29.347Z,59.63
2019-02-07T13:08:17.543Z,50.63
2019-02-07T13:11:07.946Z,51.67
2019-02-07T13:13:50.782Z,55.23
2019-02-07T13:16:45.262Z,53.00
2019-02-07T13:19:40.308Z,53.60
2019-02-07T13:22:35.736Z,54.10
2019-02-07T13:25:43.314Z,56.97
2019-02-07T13:28:22.932Z,57.73
2019-02-07T13:31:09.649Z,53.47
2019-02-07T13:34:02.762Z,67.57
2019-02-07T13:36:48.917Z,59.47
2019-02-07T13:39:37.657Z,53.43
2019-02-07T13:42:44.929Z,78.87
2019-02-07T13:45:42.326Z,69.73
2019-02-07T13:48:43.019Z,89.60
2019-02-07T13:51:38.340Z,67.63
2019-02-07T13:54:29.519Z,79.97
2019-02-07T13:57:23.591Z,116.33
2019-02-07T14:00:10.714Z,93.33
2019-02-07T14:02:48.111Z,77.20
2019-02-07T14:05:38.564Z,62.07
2019-02-07T14:08:25.250Z,54.87
2019-02-07T14:11:16.885Z,46.23
2019-02-07T14:14:11.281Z,53.93
2019-02-07T14:17:17.838Z,46.47
2019-02-07T14:20:03.920Z,52.80
2019-02-07T14:22:52.852Z,46.73
2019-02-07T14:25:32.291Z,55.70
2019-02-07T14:28:19.262Z,44.67
2019-02-07T14:31:13.431Z,48.73
2019-02-07T14:34:00.601Z,43.47
2019-02-07T14:36:40.656Z,60.10
2019-02-07T14:39:29.099Z,48.87
2019-02-07T14:42:35.634Z,58.03
2019-02-07T14:45:28.679Z,45.63
2019-02-07T14:47:57.953Z,51.97
2019-02-07T14:50:27.279Z,53.30
2019-02-07T14:52:56.544Z,48.33
2019-02-07T14:55:26.059Z,51.00
2019-02-07T14:57:55.544Z,46.73
2019-02-07T15:00:25.742Z,50.07
2019-02-07T15:02:55.090Z,49.23
2019-02-07T15:05:24.599Z,49.73
2019-02-07T15:07:53.844Z,46.53
2019-02-07T15:10:23.390Z,45.67
2019-02-07T15:12:52.638Z,48.07
2019-02-07T15:15:22.199Z,46.17
2019-02-07T15:17:51.530Z,46.97
2019-02-07T15:20:26.315Z,48.50
2019-02-07T15:22:51.751Z,45.30
2019-02-07T15:25:21.215Z,53.47
2019-02-07T15:27:50.441Z,53.50
2019-02-07T15:30:19.686Z,48.70
2019-02-07T15:32:48.836Z,43.47
2019-02-07T15:35:21.398Z,50.20
2019-02-07T15:37:50.721Z,53.87
2019-02-07T15:40:22.282Z,45.23
2019-02-07T15:42:51.930Z,48.87
2019-02-07T15:45:21.590Z,43.97
2019-02-07T15:47:50.838Z,55.30
2019-02-07T15:50:22.588Z,49.70
2019-02-07T15:52:53.989Z,48.17
2019-02-07T15:55:23.639Z,44.37
2019-02-07T15:57:53.059Z,50.00
2019-02-07T16:00:40.643Z,49.37
2019-02-07T16:03:14.448Z,46.93
2019-02-07T16:05:43.775Z,45.67
2019-02-07T16:08:13.000Z,48.50
2019-02-07T16:10:42.458Z,45.37
2019-02-07T16:13:11.675Z,49.10
2019-02-07T16:15:41.011Z,44.30
2019-02-07T16:18:10.540Z,47.43
2019-02-07T16:20:48.634Z,50.77
2019-02-07T16:23:10.934Z,46.17
2019-02-07T16:25:40.336Z,53.63
2019-02-07T16:28:09.772Z,49.37
2019-02-07T16:30:39.140Z,50.10
2019-02-07T16:33:08.563Z,46.53
2019-02-07T16:35:38.291Z,45.97
2019-02-07T16:38:07.782Z,50.87
2019-02-07T16:40:37.113Z,47.37
2019-02-07T16:43:06.410Z,49.97
2019-02-07T16:45:35.669Z,45.87
2019-02-07T16:48:05.460Z,47.33
2019-02-07T16:50:34.801Z,44.97
2019-02-07T16:53:04.339Z,45.67
2019-02-07T16:55:33.596Z,46.60
2019-02-07T16:58:02.930Z,61.13
2019-02-07T17:00:33.066Z,48.43
2019-02-07T17:03:02.333Z,54.40
2019-02-07T17:05:31.563Z,44.40
2019-02-07T17:08:00.885Z,49.37
2019-02-07T17:10:32.005Z,46.00
2019-02-07T17:13:01.360Z,44.97
2019-02-07T17:15:30.707Z,40.07
2019-02-07T17:18:00.019Z,48.60
2019-02-07T17:20:30.639Z,43.57
2019-02-07T17:23:00.427Z,46.53
2019-02-07T17:25:30.669Z,45.67
2019-02-07T17:28:00.108Z,48.33
2019-02-07T17:30:29.978Z,84.80
2019-02-07T17:32:59.411Z,44.90
2019-02-07T17:35:28.558Z,50.07
2019-02-07T17:37:57.916Z,50.70
2019-02-07T17:40:27.083Z,57.03
2019-02-07T17:42:56.659Z,40.90
2019-02-07T17:45:26.882Z,40.17
2019-02-07T17:47:56.545Z,46.47
2019-02-07T17:50:27.663Z,43.60
2019-02-07T17:52:57.111Z,50.70
2019-02-07T17:55:26.755Z,46.17
2019-02-07T17:57:56.083Z,39.67
2019-02-07T18:00:49.979Z,48.47
2019-02-07T18:03:19.302Z,40.13
2019-02-07T18:05:48.535Z,43.27
2019-02-07T18:08:17.866Z,42.43
2019-02-07T18:10:47.553Z,44.07
2019-02-07T18:13:16.734Z,45.17
2019-02-07T18:15:45.882Z,47.33
2019-02-07T18:18:15.541Z,41.73
2019-02-07T18:20:44.851Z,43.17
2019-02-07T18:23:14.026Z,47.77
2019-02-07T18:25:43.354Z,41.47
2019-02-07T18:28:12.799Z,40.10
2019-02-07T18:30:41.955Z,50.13
2019-02-07T18:33:11.191Z,39.77
2019-02-07T18:35:40.439Z,37.17
2019-02-07T18:38:09.775Z,36.13
2019-02-07T18:40:39.119Z,39.07
2019-02-07T18:43:08.345Z,42.47
2019-02-07T18:45:37.902Z,38.93
2019-02-07T18:48:07.142Z,38.27
2019-02-07T18:50:37.246Z,37.90
2019-02-07T18:53:06.954Z,36.43
2019-02-07T18:55:36.538Z,43.50
2019-02-07T18:58:06.137Z,37.67
2019-02-07T19:00:35.838Z,37.37
2019-02-07T19:03:06.797Z,40.40
2019-02-07T19:05:36.157Z,37.97
2019-02-07T19:08:05.706Z,44.97
2019-02-07T19:10:35.063Z,39.43
2019-02-07T19:13:04.506Z,36.57
2019-02-07T19:15:52.288Z,39.10
2019-02-07T19:18:21.430Z,35.47
2019-02-07T19:20:50.691Z,38.37
2019-02-07T19:23:20.483Z,37.13
2019-02-07T19:25:49.785Z,36.70
2019-02-07T19:28:19.092Z,36.60
2019-02-07T19:30:48.404Z,35.90
2019-02-07T19:33:17.663Z,36.00
2019-02-07T19:35:47.030Z,40.00
2019-02-07T19:38:16.323Z,36.37
2019-02-07T19:40:45.662Z,33.87
2019-02-07T19:43:14.955Z,32.40
2019-02-07T19:45:44.142Z,31.27
2019-02-07T19:48:13.370Z,33.93
2019-02-07T19:50:42.634Z,35.70
2019-02-07T19:53:11.854Z,32.60
2019-02-07T19:55:41.139Z,34.53
2019-02-07T19:58:10.447Z,32.60
2019-02-07T20:00:39.779Z,34.83
2019-02-07T20:03:09.094Z,31.27
2019-02-07T20:05:38.362Z,34.80
2019-02-07T20:08:07.590Z,34.43
2019-02-07T20:10:37.243Z,33.10
2019-02-07T20:13:06.767Z,32.90
2019-02-07T20:15:41.011Z,29.80
2019-02-07T20:18:11.407Z,32.63
2019-02-07T20:20:41.062Z,32.70
2019-02-07T20:23:10.294Z,31.37
2019-02-07T20:25:40.132Z,31.47
2019-02-07T20:28:09.651Z,29.23
2019-02-07T20:30:40.768Z,27.37
2019-02-07T20:33:10.554Z,31.10
2019-02-07T20:35:39.983Z,28.93
2019-02-07T20:38:10.514Z,30.10
2019-02-07T20:40:39.706Z,30.30
2019-02-07T20:43:09.130Z,28.23
2019-02-07T20:45:38.350Z,31.10
2019-02-07T20:48:09.142Z,29.00
2019-02-07T20:50:38.466Z,28.53
2019-02-07T20:53:07.710Z,29.00
2019-02-07T20:55:37.038Z,28.43
2019-02-07T20:58:06.874Z,27.20
2019-02-07T21:00:37.679Z,28.93
2019-02-07T21:03:07.333Z,31.63
2019-02-07T21:05:36.799Z,30.70
2019-02-07T21:08:06.172Z,26.43
2019-02-07T21:10:35.773Z,35.07
2019-02-07T21:13:05.859Z,26.77
2019-02-07T21:15:35.136Z,30.63
2019-02-07T21:18:04.800Z,28.33
2019-02-07T21:20:34.105Z,29.13
2019-02-07T21:23:03.846Z,26.60
2019-02-07T21:25:42.326Z,30.13
2019-02-07T21:28:12.065Z,26.13
2019-02-07T21:30:41.364Z,27.87
2019-02-07T21:33:10.635Z,25.77
2019-02-07T21:35:40.015Z,28.40
2019-02-07T21:38:09.354Z,25.47
2019-02-07T21:40:38.566Z,29.40
2019-02-07T21:43:07.901Z,25.10
2019-02-07T21:45:37.138Z,28.70
2019-02-07T21:48:09.342Z,26.07
2019-02-07T21:50:38.898Z,28.37
2019-02-07T21:53:08.163Z,24.43
2019-02-07T21:55:37.514Z,25.67
2019-02-07T21:58:07.661Z,30.90
2019-02-07T22:00:38.873Z,28.70
2019-02-07T22:03:09.689Z,28.07
2019-02-07T22:05:39.038Z,25.10
2019-02-07T22:08:08.726Z,27.07
2019-02-07T22:10:38.233Z,23.20
2019-02-07T22:13:07.950Z,28.20
2019-02-07T22:15:37.187Z,23.10
2019-02-07T22:18:07.889Z,30.60
2019-02-07T22:20:37.377Z,23.83
2019-02-07T22:23:06.793Z,26.33
2019-02-07T22:25:36.090Z,24.73
2019-02-07T22:28:07.248Z,27.37
2019-02-07T22:30:36.808Z,25.20
2019-02-07T22:33:06.742Z,23.53
2019-02-07T22:35:36.178Z,25.47
2019-02-07T22:38:06.590Z,22.80
2019-02-07T22:40:35.902Z,23.57
2019-02-07T22:43:05.559Z,22.83
2019-02-07T22:45:34.787Z,22.97
2019-02-07T22:48:04.210Z,22.40
2019-02-07T22:50:33.539Z,23.97
2019-02-07T22:53:03.050Z,20.13
2019-02-07T22:55:32.363Z,22.77
2019-02-07T22:58:01.686Z,21.00
2019-02-07T23:01:15.088Z,21.60
2019-02-07T23:03:52.601Z,21.20
2019-02-07T23:06:21.854Z,22.17
2019-02-07T23:08:51.391Z,24.87
2019-02-07T23:11:21.254Z,20.97
2019-02-07T23:13:50.482Z,23.37
2019-02-07T23:16:20.046Z,23.97
2019-02-07T23:18:49.684Z,21.33
2019-02-07T23:21:19.118Z,23.77
2019-02-07T23:23:48.342Z,22.03
2019-02-07T23:26:17.595Z,20.20
2019-02-07T23:28:46.967Z,23.27
2019-02-07T23:31:16.302Z,19.00
2019-02-07T23:33:45.989Z,22.53
2019-02-07T23:36:15.253Z,17.43
2019-02-07T23:38:44.545Z,19.93
2019-02-07T23:41:13.899Z,18.90
2019-02-07T23:43:46.171Z,23.20
2019-02-07T23:46:14.206Z,18.00
2019-02-07T23:48:43.914Z,20.50
2019-02-07T23:51:13.175Z,18.50
2019-02-07T23:53:42.407Z,19.60
2019-02-07T23:56:11.690Z,17.57
2019-02-07T23:58:40.909Z,18.83
